createdAt,value
2023-04-11T00:02:13.122Z,23.25
2023-04-11T00:05:21.527Z,22.05
2023-04-11T00:08:27.274Z,22.20
2023-04-11T00:11:32.713Z,22.83
2023-04-11T00:14:38.596Z,23.92
2023-04-11T00:17:45.961Z,23.45
2023-04-11T00:20:53.857Z,24.55
2023-04-11T00:23:59.206Z,22.70
2023-04-11T00:27:04.819Z,22.67
2023-04-11T00:30:10.726Z,23.00
2023-04-11T00:33:17.147Z,23.08
2023-04-11T00:36:25.005Z,22.05
2023-04-11T00:39:31.383Z,20.98
2023-04-11T00:42:36.925Z,22.13
2023-04-11T00:45:42.851Z,22.85
2023-04-11T00:48:48.425Z,21.50
2023-04-11T00:51:56.422Z,22.20
2023-04-11T00:55:01.912Z,22.63
2023-04-11T00:58:09.721Z,22.17
2023-04-11T01:01:17.001Z,22.15
2023-04-11T01:04:22.519Z,20.90
2023-04-11T01:07:31.881Z,23.45
2023-04-11T01:10:37.838Z,23.25
2023-04-11T01:13:44.761Z,21.33
2023-04-11T01:16:51.101Z,21.92
2023-04-11T01:19:56.773Z,23.13
2023-04-11T01:23:06.428Z,22.40
2023-04-11T01:26:14.677Z,24.15
2023-04-11T01:29:20.065Z,22.40
2023-04-11T01:32:25.333Z,22.83
2023-04-11T01:35:30.660Z,20.77
2023-04-11T01:38:36.904Z,22.45
2023-04-11T01:41:45.125Z,22.33
2023-04-11T01:44:51.391Z,23.48
2023-04-11T01:47:57.127Z,22.52
2023-04-11T01:51:02.580Z,24.52
2023-04-11T01:54:08.311Z,24.77
2023-04-11T01:57:16.601Z,23.35
2023-04-11T02:00:22.428Z,24.00
2023-04-11T02:03:28.041Z,22.98
2023-04-11T02:06:33.590Z,22.20
2023-04-11T02:09:39.696Z,22.08
2023-04-11T02:12:47.743Z,22.17
2023-04-11T02:15:53.297Z,23.00
2023-04-11T02:18:59.392Z,21.30
2023-04-11T02:22:06.488Z,21.35
2023-04-11T02:25:12.221Z,21.60
2023-04-11T02:28:20.236Z,23.02
2023-04-11T02:31:25.794Z,22.77
2023-04-11T02:34:31.187Z,23.95
2023-04-11T02:37:36.850Z,23.42
2023-04-11T02:40:42.349Z,23.33
2023-04-11T02:43:50.251Z,23.35
2023-04-11T02:46:55.811Z,22.73
2023-04-11T02:50:02.673Z,22.77
2023-04-11T02:53:15.236Z,23.95
2023-04-11T02:56:25.963Z,21.00
2023-04-11T02:59:37.473Z,20.10
2023-04-11T03:02:46.449Z,17.35
2023-04-11T03:05:51.756Z,14.57
2023-04-11T03:09:01.659Z,13.88
2023-04-11T03:12:07.325Z,15.85
2023-04-11T03:15:19.444Z,13.23
2023-04-11T03:18:26.075Z,17.45
2023-04-11T03:21:32.177Z,15.13
2023-04-11T03:24:39.623Z,14.35
2023-04-11T03:27:45.713Z,17.17
2023-04-11T03:30:54.747Z,17.38
2023-04-11T03:34:01.946Z,15.80
2023-04-11T03:37:08.160Z,17.67
2023-04-11T03:40:15.790Z,17.37
2023-04-11T03:43:26.105Z,14.18
2023-04-11T03:46:34.807Z,17.13
2023-04-11T03:49:40.212Z,16.45
2023-04-11T03:52:45.702Z,17.20
2023-04-11T03:55:54.033Z,18.08
2023-04-11T03:59:03.868Z,17.38
2023-04-11T04:02:22.361Z,17.10
2023-04-11T04:05:30.089Z,17.70
2023-04-11T04:08:36.361Z,18.42
2023-04-11T04:11:41.862Z,17.77
2023-04-11T04:14:47.482Z,18.13
2023-04-11T04:17:57.688Z,17.50
2023-04-11T04:21:21.432Z,18.30
2023-04-11T04:24:30.232Z,19.08
2023-04-11T04:27:54.335Z,19.95
2023-04-11T04:31:02.797Z,19.73
2023-04-11T04:34:22.045Z,19.15
2023-04-11T04:37:29.468Z,19.33
2023-04-11T04:40:43.223Z,19.02
2023-04-11T04:43:49.409Z,18.65
2023-04-11T04:46:59.349Z,19.30
2023-04-11T04:50:09.877Z,19.50
2023-04-11T04:53:15.357Z,19.83
2023-04-11T04:56:26.588Z,20.42
2023-04-11T04:59:32.245Z,20.83
2023-04-11T05:02:46.374Z,20.42
2023-04-11T05:05:55.067Z,21.67
2023-04-11T05:12:07.213Z,21.38
2023-04-11T05:15:15.524Z,20.10
2023-04-11T05:18:21.108Z,21.80
2023-04-11T05:21:28.986Z,21.40
2023-04-11T05:24:34.336Z,21.33
2023-04-11T05:27:44.254Z,23.30
2023-04-11T05:30:49.959Z,21.27
2023-04-11T05:33:55.743Z,21.77
2023-04-11T05:37:05.051Z,21.55
2023-04-11T05:40:11.831Z,20.58
2023-04-11T05:43:17.941Z,21.48
2023-04-11T05:46:23.447Z,21.88
2023-04-11T05:49:28.826Z,22.70
2023-04-11T05:52:36.617Z,21.48
2023-04-11T05:55:42.169Z,21.35
2023-04-11T05:58:47.662Z,21.60
2023-04-11T06:01:55.060Z,22.77
2023-04-11T06:05:00.358Z,21.38
2023-04-11T06:08:10.828Z,22.45
2023-04-11T06:11:16.382Z,22.63
2023-04-11T06:14:21.902Z,22.55
2023-04-11T06:17:27.153Z,23.75
2023-04-11T06:20:32.553Z,23.02
2023-04-11T06:23:40.617Z,23.65
2023-04-11T06:26:45.962Z,26.20
2023-04-11T06:29:51.470Z,24.67
2023-04-11T06:32:56.853Z,21.42
2023-04-11T06:36:04.166Z,21.70
2023-04-11T06:39:13.455Z,22.52
2023-04-11T06:42:19.060Z,25.60
2023-04-11T06:45:24.280Z,23.95
2023-04-11T06:48:30.972Z,25.10
2023-04-11T06:51:36.081Z,22.60
2023-04-11T06:54:44.326Z,20.95
2023-04-11T06:57:49.716Z,20.02
2023-04-11T07:00:54.820Z,19.60
2023-04-11T07:04:00.592Z,21.25
2023-04-11T07:07:06.963Z,20.38
2023-04-11T07:10:15.605Z,19.15
2023-04-11T07:13:21.562Z,17.55
2023-04-11T07:16:27.547Z,20.45
2023-04-11T07:19:32.722Z,19.08
2023-04-11T07:22:38.313Z,18.75
2023-04-11T07:25:46.384Z,18.98
2023-04-11T07:28:51.619Z,18.95
2023-04-11T07:31:57.234Z,20.08
2023-04-11T07:35:02.542Z,20.60
2023-04-11T07:38:09.841Z,19.23
2023-04-11T07:41:17.843Z,18.77
2023-04-11T07:44:23.936Z,18.75
2023-04-11T07:47:29.745Z,19.83
2023-04-11T07:50:35.031Z,19.00
2023-04-11T07:53:40.864Z,18.00
2023-04-11T07:56:48.609Z,17.95
2023-04-11T07:59:53.716Z,17.63
2023-04-11T08:03:00.207Z,19.42
2023-04-11T08:06:05.765Z,17.65
2023-04-11T08:09:11.333Z,19.17
2023-04-11T08:12:19.870Z,19.00
2023-04-11T08:18:31.637Z,18.70
2023-04-11T08:21:37.072Z,18.45
2023-04-11T08:24:42.394Z,17.65
2023-04-11T08:27:50.779Z,17.30
2023-04-11T08:30:58.774Z,18.42
2023-04-11T08:34:06.666Z,18.27
2023-04-11T08:37:12.589Z,16.70
2023-04-11T08:40:18.362Z,16.58
2023-04-11T08:43:26.709Z,16.23
2023-04-11T08:46:33.557Z,16.45
2023-04-11T08:49:38.784Z,17.35
2023-04-11T08:52:45.411Z,17.00
2023-04-11T08:55:51.161Z,17.30
2023-04-11T08:58:58.994Z,16.08
2023-04-11T09:02:09.643Z,18.90
2023-04-11T09:05:27.429Z,16.75
2023-04-11T09:08:40.678Z,20.05
2023-04-11T09:11:55.297Z,17.67
2023-04-11T09:15:20.252Z,18.83
2023-04-11T09:18:35.225Z,19.45
2023-04-11T09:21:51.527Z,17.88
2023-04-11T09:25:05.366Z,19.02
2023-04-11T09:28:11.095Z,18.08
2023-04-11T09:31:19.451Z,17.27
2023-04-11T09:34:27.893Z,16.05
2023-04-11T09:37:44.828Z,16.13
2023-04-11T09:40:49.971Z,17.30
2023-04-11T09:43:56.706Z,16.67
2023-04-11T09:47:04.916Z,16.02
2023-04-11T09:50:11.340Z,14.70
2023-04-11T09:53:16.496Z,15.18
2023-04-11T09:56:22.472Z,15.52
2023-04-11T09:59:29.399Z,15.38
2023-04-11T10:02:37.508Z,16.70
2023-04-11T10:08:48.121Z,14.95
2023-04-11T10:11:53.567Z,15.93
2023-04-11T10:14:59.846Z,15.10
2023-04-11T10:18:14.101Z,15.73
2023-04-11T10:21:34.360Z,16.00
2023-04-11T10:24:39.707Z,15.50
2023-04-11T10:27:53.823Z,14.60
2023-04-11T10:31:04.657Z,14.52
2023-04-11T10:34:18.735Z,14.43
2023-04-11T10:37:34.540Z,13.60
2023-04-11T10:40:39.907Z,14.30
2023-04-11T10:43:45.391Z,14.55
2023-04-11T10:46:52.273Z,15.30
2023-04-11T10:50:00.966Z,14.35
2023-04-11T10:53:07.029Z,15.10
2023-04-11T10:56:12.284Z,14.15
2023-04-11T10:59:32.402Z,15.23
2023-04-11T11:02:42.517Z,13.85
2023-04-11T11:05:52.142Z,13.68
2023-04-11T11:08:58.241Z,14.18
2023-04-11T11:12:09.772Z,12.55
2023-04-11T11:15:16.284Z,12.70
2023-04-11T11:18:21.579Z,13.40
2023-04-11T11:21:30.700Z,12.60
2023-04-11T11:24:36.064Z,11.85
2023-04-11T11:27:41.483Z,12.60
2023-04-11T11:30:54.865Z,12.90
2023-04-11T11:34:21.369Z,11.32
2023-04-11T11:37:29.204Z,11.38
2023-04-11T11:43:42.349Z,11.75
2023-04-11T11:47:02.523Z,11.30
2023-04-11T11:50:08.490Z,12.20
2023-04-11T11:53:19.402Z,11.82
2023-04-11T11:56:24.769Z,11.57
2023-04-11T11:59:30.656Z,12.15
2023-04-11T12:02:37.468Z,12.20
2023-04-11T12:05:44.859Z,11.73
2023-04-11T12:08:54.295Z,11.52
2023-04-11T12:12:00.126Z,11.93
2023-04-11T12:15:05.594Z,11.77
2023-04-11T12:18:11.357Z,11.88
2023-04-11T12:21:18.034Z,10.48
2023-04-11T12:24:26.216Z,11.73
2023-04-11T12:30:38.822Z,11.25
2023-04-11T12:33:47.327Z,11.07
2023-04-11T12:36:52.493Z,10.95
2023-04-11T12:40:00.968Z,11.25
2023-04-11T12:43:06.615Z,11.50
2023-04-11T12:46:12.106Z,11.15
2023-04-11T12:49:17.136Z,11.55
2023-04-11T12:52:22.823Z,11.48
2023-04-11T12:55:31.325Z,11.13
2023-04-11T12:58:36.797Z,10.52
2023-04-11T13:01:42.329Z,10.43
2023-04-11T13:04:47.931Z,10.93
2023-04-11T13:07:53.395Z,10.10
2023-04-11T13:11:01.134Z,10.57
2023-04-11T13:14:06.652Z,10.25
2023-04-11T13:17:12.529Z,9.82
2023-04-11T13:20:17.946Z,9.85
2023-04-11T13:23:23.506Z,10.10
2023-04-11T13:26:31.939Z,9.55
2023-04-11T13:29:37.295Z,8.68
2023-04-11T13:32:42.676Z,8.70
2023-04-11T13:35:48.197Z,8.73
2023-04-11T13:38:54.065Z,9.00
2023-04-11T13:42:01.873Z,8.52
2023-04-11T13:45:07.821Z,9.02
2023-04-11T13:48:12.969Z,8.40
2023-04-11T13:51:18.438Z,9.73
2023-04-11T13:54:23.844Z,9.23
2023-04-11T13:57:31.875Z,9.95
2023-04-11T14:00:37.398Z,8.82
2023-04-11T14:03:43.470Z,9.80
2023-04-11T14:06:48.918Z,9.65
2023-04-11T14:09:54.632Z,10.00
2023-04-11T14:13:02.737Z,8.80
2023-04-11T14:16:09.658Z,9.00
2023-04-11T14:19:15.541Z,9.70
2023-04-11T14:22:20.909Z,8.35
2023-04-11T14:25:26.833Z,9.25
2023-04-11T14:28:35.180Z,9.68
2023-04-11T14:31:40.554Z,9.00
2023-04-11T14:34:46.961Z,8.85
2023-04-11T14:37:52.590Z,8.75
2023-04-11T14:40:58.240Z,9.45
2023-04-11T14:44:06.252Z,9.23
2023-04-11T14:47:30.533Z,10.30
2023-04-11T14:50:35.905Z,10.05
2023-04-11T14:53:41.670Z,9.18
2023-04-11T14:56:48.469Z,9.60
2023-04-11T14:59:56.738Z,9.70
2023-04-11T15:06:07.611Z,10.52
2023-04-11T15:09:12.853Z,9.38
2023-04-11T15:12:18.482Z,10.02
2023-04-11T15:15:26.550Z,10.60
2023-04-11T15:21:38.678Z,9.85
2023-04-11T15:24:44.141Z,9.80
2023-04-11T15:27:49.416Z,9.23
2023-04-11T15:30:58.176Z,9.95
2023-04-11T15:34:04.457Z,9.70
2023-04-11T15:37:11.995Z,9.38
2023-04-11T15:40:18.190Z,10.07
2023-04-11T15:43:23.899Z,9.90
2023-04-11T15:46:32.012Z,9.75
2023-04-11T15:49:37.350Z,9.10
2023-04-11T15:52:43.165Z,9.82
2023-04-11T15:55:49.497Z,10.15
2023-04-11T15:58:54.638Z,9.98
2023-04-11T16:02:02.671Z,9.45
2023-04-11T16:05:08.891Z,9.90
2023-04-11T16:08:14.213Z,10.48
2023-04-11T16:11:19.582Z,10.38
2023-04-11T16:14:25.535Z,10.20
2023-04-11T16:17:34.068Z,10.05
2023-04-11T16:20:39.691Z,9.80
2023-04-11T16:23:45.085Z,10.98
2023-04-11T16:26:50.386Z,10.35
2023-04-11T16:30:00.192Z,10.35
2023-04-11T16:33:08.398Z,12.55
2023-04-11T16:36:14.147Z,11.45
2023-04-11T16:39:19.629Z,11.35
2023-04-11T16:42:26.063Z,10.23
2023-04-11T16:45:31.496Z,11.63
2023-04-11T16:48:39.466Z,10.85
2023-04-11T16:51:44.863Z,11.65
2023-04-11T16:54:50.424Z,12.27
2023-04-11T16:57:55.504Z,14.13
2023-04-11T17:01:00.847Z,13.48
2023-04-11T17:04:09.211Z,12.95
2023-04-11T17:07:14.504Z,12.55
2023-04-11T17:10:20.050Z,12.57
2023-04-11T17:13:25.353Z,13.50
2023-04-11T17:16:31.038Z,13.30
2023-04-11T17:19:39.010Z,13.35
2023-04-11T17:22:44.813Z,14.07
2023-04-11T17:25:53.186Z,14.60
2023-04-11T17:32:04.413Z,14.93
2023-04-11T17:35:12.905Z,14.25
2023-04-11T17:38:18.176Z,13.90
2023-04-11T17:41:23.969Z,16.17
2023-04-11T17:44:29.413Z,14.43
2023-04-11T17:47:34.634Z,15.82
2023-04-11T17:50:46.557Z,13.93
2023-04-11T17:53:52.471Z,15.25
2023-04-11T17:56:57.880Z,15.05
2023-04-11T18:00:19.896Z,13.85
2023-04-11T18:03:25.973Z,15.95
2023-04-11T18:06:34.753Z,15.55
2023-04-11T18:09:41.066Z,15.35
2023-04-11T18:12:46.830Z,17.15
2023-04-11T18:15:52.754Z,15.88
2023-04-11T18:18:58.639Z,17.25
2023-04-11T18:22:06.753Z,17.33
2023-04-11T18:25:12.518Z,15.27
2023-04-11T18:28:18.063Z,17.20
2023-04-11T18:31:23.533Z,16.17
2023-04-11T18:34:29.671Z,17.27
2023-04-11T18:37:38.159Z,18.65
2023-04-11T18:40:43.491Z,17.52
2023-04-11T18:43:49.208Z,19.48
2023-04-11T18:46:56.308Z,19.85
2023-04-11T18:53:13.808Z,19.35
2023-04-11T18:56:19.713Z,19.23
2023-04-11T18:59:29.111Z,19.60
2023-04-11T19:02:35.608Z,18.73
2023-04-11T19:05:41.285Z,19.00
2023-04-11T19:08:49.374Z,19.95
2023-04-11T19:11:54.559Z,18.95
2023-04-11T19:14:59.876Z,19.15
2023-04-11T19:18:06.859Z,18.25
2023-04-11T19:21:12.051Z,18.50
2023-04-11T19:24:20.524Z,19.15
2023-04-11T19:27:25.830Z,20.33
2023-04-11T19:30:32.483Z,19.88
2023-04-11T19:33:39.223Z,20.48
2023-04-11T19:36:45.190Z,19.45
2023-04-11T19:39:53.117Z,19.10
2023-04-11T19:42:58.464Z,20.63
2023-04-11T19:46:03.579Z,19.38
2023-04-11T19:49:08.850Z,19.27
2023-04-11T19:52:14.191Z,20.40
2023-04-11T19:55:22.418Z,20.02
2023-04-11T19:58:28.095Z,19.70
2023-04-11T20:01:33.682Z,20.20
2023-04-11T20:04:40.177Z,19.33
2023-04-11T20:07:45.687Z,19.67
2023-04-11T20:10:53.502Z,18.98
2023-04-11T20:13:59.141Z,20.73
2023-04-11T20:17:04.606Z,19.70
2023-04-11T20:20:12.860Z,19.20
2023-04-11T20:23:18.944Z,20.63
2023-04-11T20:26:27.535Z,20.38
2023-04-11T20:29:33.144Z,20.00
2023-04-11T20:32:38.759Z,19.98
2023-04-11T20:35:44.176Z,20.13
2023-04-11T20:38:49.504Z,21.55
2023-04-11T20:41:57.642Z,21.30
2023-04-11T20:45:06.336Z,21.08
2023-04-11T20:48:13.247Z,21.25
2023-04-11T20:51:18.453Z,20.92
2023-04-11T20:54:24.001Z,21.10
2023-04-11T20:57:33.925Z,20.92
2023-04-11T21:00:40.856Z,21.25
2023-04-11T21:03:47.240Z,20.40
2023-04-11T21:06:53.072Z,20.80
2023-04-11T21:09:58.923Z,20.80
2023-04-11T21:13:07.092Z,20.02
2023-04-11T21:16:12.739Z,20.92
2023-04-11T21:19:17.900Z,20.83
2023-04-11T21:22:23.603Z,22.88
2023-04-11T21:25:29.453Z,20.88
2023-04-11T21:28:37.367Z,19.70
2023-04-11T21:31:42.937Z,20.67
2023-04-11T21:34:48.177Z,22.27
2023-04-11T21:37:53.548Z,22.75
2023-04-11T21:40:59.683Z,22.80
2023-04-11T21:44:07.722Z,21.98
2023-04-11T21:47:13.125Z,22.35
2023-04-11T21:50:18.743Z,20.63
2023-04-11T21:53:24.031Z,23.83
2023-04-11T21:56:29.414Z,22.83
2023-04-11T21:59:37.127Z,23.10
2023-04-11T22:02:42.982Z,23.60
2023-04-11T22:05:50.511Z,24.02
2023-04-11T22:08:58.820Z,22.23
2023-04-11T22:12:04.224Z,22.70
2023-04-11T22:15:13.125Z,22.45
2023-04-11T22:18:26.801Z,22.27
2023-04-11T22:21:32.363Z,21.25
2023-04-11T22:24:38.845Z,22.50
2023-04-11T22:27:44.858Z,22.33
2023-04-11T22:30:53.132Z,22.23
2023-04-11T22:37:03.890Z,23.88
2023-04-11T22:40:12.191Z,23.27
2023-04-11T22:43:17.887Z,24.88
2023-04-11T22:46:26.172Z,23.38
2023-04-11T22:49:32.636Z,23.08
2023-04-11T22:52:38.158Z,23.63
2023-04-11T22:55:43.779Z,24.30
2023-04-11T22:58:48.951Z,22.02
2023-04-11T23:01:57.203Z,22.13
2023-04-11T23:08:08.854Z,22.55
2023-04-11T23:11:14.192Z,22.33
2023-04-11T23:14:22.702Z,23.75
2023-04-11T23:17:30.593Z,25.08
2023-04-11T23:20:38.491Z,22.55
2023-04-11T23:23:44.273Z,22.00
2023-04-11T23:26:49.439Z,22.85
2023-04-11T23:29:54.846Z,22.35
2023-04-11T23:33:03.239Z,23.77
2023-04-11T23:36:09.534Z,22.50
2023-04-11T23:39:14.862Z,24.77
2023-04-11T23:42:20.173Z,21.70
2023-04-11T23:45:25.927Z,22.75
2023-04-11T23:48:33.683Z,23.58
2023-04-11T23:51:38.955Z,23.50
2023-04-11T23:54:44.232Z,23.92
2023-04-11T23:57:50.195Z,22.45
